sensor_id;sensor_type;location;lat;lon;timestamp;pressure;altitude;pressure_sealevel;temperature;humidity
64139;BME280;50435;43.700;-79.318;2022-08-11T00:01:13;100136.71;;;25.48;39.12
64139;BME280;50435;43.700;-79.318;2022-08-11T00:06:31;100137.22;;;26.46;39.12
64139;BME280;50435;43.700;-79.318;2022-08-11T00:09:01;100142.89;;;26.34;39.30
64139;BME280;50435;43.700;-79.318;2022-08-11T00:11:37;100146.96;;;26.26;39.36
64139;BME280;50435;43.700;-79.318;2022-08-11T00:14:14;100150.92;;;25.62;39.60
64139;BME280;50435;43.700;-79.318;2022-08-11T00:16:43;100154.64;;;26.08;39.64
64139;BME280;50435;43.700;-79.318;2022-08-11T00:19:21;100159.88;;;25.79;39.61
64139;BME280;50435;43.700;-79.318;2022-08-11T00:21:50;100165.04;;;26.22;39.64
64139;BME280;50435;43.700;-79.318;2022-08-11T00:24:19;100169.39;;;25.82;39.92
64139;BME280;50435;43.700;-79.318;2022-08-11T00:26:48;100163.47;;;25.94;40.01
64139;BME280;50435;43.700;-79.318;2022-08-11T00:29:17;100165.49;;;25.94;40.03
64139;BME280;50435;43.700;-79.318;2022-08-11T00:31:48;100166.57;;;26.14;40.12
64139;BME280;50435;43.700;-79.318;2022-08-11T00:34:19;100164.14;;;25.92;40.07
64139;BME280;50435;43.700;-79.318;2022-08-11T00:36:51;100166.06;;;25.89;40.06
64139;BME280;50435;43.700;-79.318;2022-08-11T00:39:21;100173.96;;;25.60;40.15
64139;BME280;50435;43.700;-79.318;2022-08-11T00:42:08;100182.32;;;25.74;40.30
64139;BME280;50435;43.700;-79.318;2022-08-11T00:44:48;100184.40;;;25.71;40.42
64139;BME280;50435;43.700;-79.318;2022-08-11T00:47:33;100181.23;;;25.67;40.44
64139;BME280;50435;43.700;-79.318;2022-08-11T00:50:08;100185.31;;;25.64;40.53
64139;BME280;50435;43.700;-79.318;2022-08-11T00:53:02;100177.80;;;25.87;40.54
64139;BME280;50435;43.700;-79.318;2022-08-11T00:55:44;100182.92;;;25.55;40.63
64139;BME280;50435;43.700;-79.318;2022-08-11T00:58:55;100190.36;;;25.32;40.65
64139;BME280;50435;43.700;-79.318;2022-08-11T01:01:45;100197.25;;;25.44;40.77
64139;BME280;50435;43.700;-79.318;2022-08-11T01:04:29;100198.83;;;25.21;40.86
64139;BME280;50435;43.700;-79.318;2022-08-11T01:07:24;100191.81;;;25.66;40.93
64139;BME280;50435;43.700;-79.318;2022-08-11T01:10:13;100192.65;;;25.54;41.07
64139;BME280;50435;43.700;-79.318;2022-08-11T01:12:59;100200.55;;;25.49;41.19
64139;BME280;50435;43.700;-79.318;2022-08-11T01:16:06;100204.66;;;25.46;41.28
64139;BME280;50435;43.700;-79.318;2022-08-11T01:22:01;100214.17;;;25.75;42.03
64139;BME280;50435;43.700;-79.318;2022-08-11T01:25:01;100211.16;;;25.29;41.61
64139;BME280;50435;43.700;-79.318;2022-08-11T01:30:43;100217.62;;;24.11;42.02
64139;BME280;50435;43.700;-79.318;2022-08-11T01:40:20;100212.89;;;25.48;42.56
64139;BME280;50435;43.700;-79.318;2022-08-11T01:43:11;100208.65;;;25.03;41.74
64139;BME280;50435;43.700;-79.318;2022-08-11T01:45:43;100215.59;;;25.18;41.87
64139;BME280;50435;43.700;-79.318;2022-08-11T01:48:18;100218.80;;;24.48;42.34
64139;BME280;50435;43.700;-79.318;2022-08-11T01:51:02;100219.88;;;25.32;42.46
64139;BME280;50435;43.700;-79.318;2022-08-11T01:53:42;100222.10;;;25.20;42.70
64139;BME280;50435;43.700;-79.318;2022-08-11T01:56:22;100228.36;;;24.03;42.65
64139;BME280;50435;43.700;-79.318;2022-08-11T01:59:00;100224.64;;;25.03;42.46
64139;BME280;50435;43.700;-79.318;2022-08-11T02:01:40;100224.63;;;24.68;42.77
64139;BME280;50435;43.700;-79.318;2022-08-11T02:04:17;100227.64;;;24.25;42.62
64139;BME280;50435;43.700;-79.318;2022-08-11T02:06:49;100230.10;;;24.87;42.80
64139;BME280;50435;43.700;-79.318;2022-08-11T02:09:30;100230.99;;;24.69;42.66
64139;BME280;50435;43.700;-79.318;2022-08-11T02:12:09;100229.79;;;25.09;42.75
64139;BME280;50435;43.700;-79.318;2022-08-11T02:14:42;100227.39;;;24.80;42.85
64139;BME280;50435;43.700;-79.318;2022-08-11T02:17:18;100226.73;;;24.06;42.86
64139;BME280;50435;43.700;-79.318;2022-08-11T02:19:53;100226.98;;;24.90;43.01
64139;BME280;50435;43.700;-79.318;2022-08-11T02:22:30;100225.39;;;24.47;43.05
64139;BME280;50435;43.700;-79.318;2022-08-11T02:25:01;100229.42;;;24.79;43.14
64139;BME280;50435;43.700;-79.318;2022-08-11T02:27:37;100229.75;;;24.81;43.18
64139;BME280;50435;43.700;-79.318;2022-08-11T02:30:10;100233.20;;;24.78;43.27
64139;BME280;50435;43.700;-79.318;2022-08-11T02:32:47;100231.77;;;24.69;43.43
64139;BME280;50435;43.700;-79.318;2022-08-11T02:35:25;100227.09;;;24.17;43.48
64139;BME280;50435;43.700;-79.318;2022-08-11T02:38:06;100226.12;;;24.67;43.51
64139;BME280;50435;43.700;-79.318;2022-08-11T02:40:45;100223.57;;;24.62;43.51
64139;BME280;50435;43.700;-79.318;2022-08-11T02:43:25;100225.37;;;24.12;43.64
64139;BME280;50435;43.700;-79.318;2022-08-11T02:46:23;100220.56;;;24.02;43.76
64139;BME280;50435;43.700;-79.318;2022-08-11T02:48:59;100217.39;;;24.45;43.78
64139;BME280;50435;43.700;-79.318;2022-08-11T02:51:41;100216.56;;;24.16;43.82
64139;BME280;50435;43.700;-79.318;2022-08-11T02:54:16;100214.87;;;23.54;44.06
64139;BME280;50435;43.700;-79.318;2022-08-11T02:56:55;100215.95;;;24.24;44.12
64139;BME280;50435;43.700;-79.318;2022-08-11T02:59:32;100216.82;;;24.25;44.10
64139;BME280;50435;43.700;-79.318;2022-08-11T03:02:11;100214.92;;;24.27;43.99
64139;BME280;50435;43.700;-79.318;2022-08-11T03:04:54;100213.39;;;24.39;44.23
64139;BME280;50435;43.700;-79.318;2022-08-11T03:07:30;100213.35;;;24.13;44.11
64139;BME280;50435;43.700;-79.318;2022-08-11T03:10:05;100213.99;;;24.36;44.21
64139;BME280;50435;43.700;-79.318;2022-08-11T03:12:56;100213.10;;;24.07;44.09
64139;BME280;50435;43.700;-79.318;2022-08-11T03:18:38;100216.75;;;24.16;44.33
64139;BME280;50435;43.700;-79.318;2022-08-11T03:21:11;100217.47;;;23.34;44.03
64139;BME280;50435;43.700;-79.318;2022-08-11T03:23:49;100216.21;;;24.20;44.14
64139;BME280;50435;43.700;-79.318;2022-08-11T03:26:25;100214.72;;;23.69;44.22
64139;BME280;50435;43.700;-79.318;2022-08-11T03:29:03;100212.34;;;24.14;44.29
64139;BME280;50435;43.700;-79.318;2022-08-11T03:31:36;100211.67;;;23.88;44.17
64139;BME280;50435;43.700;-79.318;2022-08-11T03:34:08;100214.89;;;23.47;44.34
64139;BME280;50435;43.700;-79.318;2022-08-11T03:36:58;100218.06;;;23.85;44.31
64139;BME280;50435;43.700;-79.318;2022-08-11T03:39:44;100218.84;;;23.88;44.18
64139;BME280;50435;43.700;-79.318;2022-08-11T03:42:28;100219.12;;;24.16;44.14
64139;BME280;50435;43.700;-79.318;2022-08-11T03:45:10;100220.68;;;24.15;44.17
64139;BME280;50435;43.700;-79.318;2022-08-11T03:48:00;100224.21;;;23.85;44.25
64139;BME280;50435;43.700;-79.318;2022-08-11T03:50:46;100225.24;;;24.24;44.27
64139;BME280;50435;43.700;-79.318;2022-08-11T03:53:38;100229.33;;;23.67;44.54
64139;BME280;50435;43.700;-79.318;2022-08-11T03:56:27;100228.57;;;23.32;44.37
64139;BME280;50435;43.700;-79.318;2022-08-11T03:59:23;100225.13;;;24.18;44.58
64139;BME280;50435;43.700;-79.318;2022-08-11T04:02:10;100224.59;;;23.90;44.60
64139;BME280;50435;43.700;-79.318;2022-08-11T04:05:07;100222.88;;;23.92;44.63
64139;BME280;50435;43.700;-79.318;2022-08-11T04:08:08;100219.27;;;23.78;44.67
64139;BME280;50435;43.700;-79.318;2022-08-11T04:11:06;100220.32;;;24.02;44.53
64139;BME280;50435;43.700;-79.318;2022-08-11T04:14:46;100217.91;;;23.64;44.36
64139;BME280;50435;43.700;-79.318;2022-08-11T04:17:39;100216.14;;;23.48;44.53
64139;BME280;50435;43.700;-79.318;2022-08-11T04:20:28;100212.94;;;23.40;44.68
64139;BME280;50435;43.700;-79.318;2022-08-11T04:23:17;100210.36;;;23.86;44.66
64139;BME280;50435;43.700;-79.318;2022-08-11T04:26:11;100205.57;;;23.74;44.53
64139;BME280;50435;43.700;-79.318;2022-08-11T04:28:57;100201.70;;;23.37;44.69
64139;BME280;50435;43.700;-79.318;2022-08-11T04:31:35;100199.73;;;23.61;44.66
64139;BME280;50435;43.700;-79.318;2022-08-11T04:34:15;100200.35;;;23.78;44.66
64139;BME280;50435;43.700;-79.318;2022-08-11T04:37:31;100193.57;;;23.74;44.77
64139;BME280;50435;43.700;-79.318;2022-08-11T04:40:17;100192.44;;;23.69;44.86
64139;BME280;50435;43.700;-79.318;2022-08-11T04:46:29;100186.11;;;23.58;45.47
64139;BME280;50435;43.700;-79.318;2022-08-11T04:49:17;100192.60;;;23.50;45.11
64139;BME280;50435;43.700;-79.318;2022-08-11T04:52:01;100195.73;;;23.26;45.11
64139;BME280;50435;43.700;-79.318;2022-08-11T04:54:45;100190.57;;;23.19;45.24
64139;BME280;50435;43.700;-79.318;2022-08-11T04:57:33;100186.56;;;23.08;45.44
64139;BME280;50435;43.700;-79.318;2022-08-11T05:00:07;100187.39;;;23.36;45.27
64139;BME280;50435;43.700;-79.318;2022-08-11T05:05:18;100191.80;;;22.65;45.52
64139;BME280;50435;43.700;-79.318;2022-08-11T05:09:49;100187.78;;;23.29;45.28
64139;BME280;50435;43.700;-79.318;2022-08-11T05:12:30;100181.30;;;22.88;45.66
64139;BME280;50435;43.700;-79.318;2022-08-11T05:15:02;100181.05;;;23.12;45.51
64139;BME280;50435;43.700;-79.318;2022-08-11T05:17:36;100177.66;;;23.08;45.65
64139;BME280;50435;43.700;-79.318;2022-08-11T05:20:09;100180.04;;;22.64;45.50
64139;BME280;50435;43.700;-79.318;2022-08-11T05:22:43;100177.12;;;22.97;45.67
64139;BME280;50435;43.700;-79.318;2022-08-11T05:25:15;100180.18;;;22.39;45.87
64139;BME280;50435;43.700;-79.318;2022-08-11T05:27:50;100174.57;;;22.95;45.70
64139;BME280;50435;43.700;-79.318;2022-08-11T05:30:26;100175.35;;;22.88;45.83
64139;BME280;50435;43.700;-79.318;2022-08-11T05:32:58;100171.59;;;23.37;45.81
64139;BME280;50435;43.700;-79.318;2022-08-11T05:35:30;100170.31;;;22.72;46.12
64139;BME280;50435;43.700;-79.318;2022-08-11T05:37:58;100164.12;;;22.78;46.02
64139;BME280;50435;43.700;-79.318;2022-08-11T05:40:27;100162.33;;;22.67;46.16
64139;BME280;50435;43.700;-79.318;2022-08-11T05:42:58;100159.73;;;22.69;46.17
64139;BME280;50435;43.700;-79.318;2022-08-11T05:45:27;100159.41;;;22.68;46.13
64139;BME280;50435;43.700;-79.318;2022-08-11T05:47:55;100154.89;;;22.98;45.99
64139;BME280;50435;43.700;-79.318;2022-08-11T05:50:24;100154.31;;;22.60;46.19
64139;BME280;50435;43.700;-79.318;2022-08-11T05:52:52;100153.66;;;22.81;46.29
64139;BME280;50435;43.700;-79.318;2022-08-11T05:55:20;100152.04;;;22.63;46.17
64139;BME280;50435;43.700;-79.318;2022-08-11T05:57:54;100153.04;;;22.62;46.26
64139;BME280;50435;43.700;-79.318;2022-08-11T06:00:23;100154.61;;;22.52;46.35
64139;BME280;50435;43.700;-79.318;2022-08-11T06:02:53;100150.26;;;22.43;46.48
64139;BME280;50435;43.700;-79.318;2022-08-11T06:05:22;100150.14;;;22.31;46.68
64139;BME280;50435;43.700;-79.318;2022-08-11T06:07:53;100149.31;;;22.64;46.67
64139;BME280;50435;43.700;-79.318;2022-08-11T06:10:26;100146.13;;;22.43;46.54
64139;BME280;50435;43.700;-79.318;2022-08-11T06:12:57;100144.81;;;22.45;46.57
64139;BME280;50435;43.700;-79.318;2022-08-11T06:15:26;100139.04;;;22.45;46.58
64139;BME280;50435;43.700;-79.318;2022-08-11T06:17:55;100146.15;;;22.47;46.51
64139;BME280;50435;43.700;-79.318;2022-08-11T06:20:23;100155.69;;;22.45;46.65
64139;BME280;50435;43.700;-79.318;2022-08-11T06:22:56;100155.11;;;22.95;46.61
64139;BME280;50435;43.700;-79.318;2022-08-11T06:25:30;100147.76;;;22.40;46.62
64139;BME280;50435;43.700;-79.318;2022-08-11T06:27:58;100150.30;;;22.99;46.47
64139;BME280;50435;43.700;-79.318;2022-08-11T06:30:33;100150.20;;;22.47;46.50
64139;BME280;50435;43.700;-79.318;2022-08-11T06:33:02;100145.37;;;22.98;46.56
64139;BME280;50435;43.700;-79.318;2022-08-11T06:35:38;100144.64;;;22.49;46.50
64139;BME280;50435;43.700;-79.318;2022-08-11T06:38:14;100139.97;;;22.03;46.52
64139;BME280;50435;43.700;-79.318;2022-08-11T06:40:53;100143.56;;;22.92;46.73
64139;BME280;50435;43.700;-79.318;2022-08-11T06:43:23;100138.81;;;22.44;46.64
64139;BME280;50435;43.700;-79.318;2022-08-11T06:45:56;100132.07;;;22.62;46.70
64139;BME280;50435;43.700;-79.318;2022-08-11T06:48:26;100129.94;;;22.47;46.61
64139;BME280;50435;43.700;-79.318;2022-08-11T06:50:58;100130.32;;;22.48;46.58
64139;BME280;50435;43.700;-79.318;2022-08-11T06:53:32;100126.28;;;22.44;46.73
64139;BME280;50435;43.700;-79.318;2022-08-11T06:56:00;100126.01;;;22.92;46.68
64139;BME280;50435;43.700;-79.318;2022-08-11T06:58:30;100122.67;;;22.40;46.82
64139;BME280;50435;43.700;-79.318;2022-08-11T07:01:01;100115.30;;;22.39;46.78
64139;BME280;50435;43.700;-79.318;2022-08-11T07:03:36;100108.52;;;22.42;46.78
64139;BME280;50435;43.700;-79.318;2022-08-11T07:06:19;100112.58;;;22.64;46.91
64139;BME280;50435;43.700;-79.318;2022-08-11T07:09:18;100105.16;;;22.37;46.79
64139;BME280;50435;43.700;-79.318;2022-08-11T07:11:59;100104.97;;;22.73;46.55
64139;BME280;50435;43.700;-79.318;2022-08-11T07:14:29;100103.70;;;22.65;46.79
64139;BME280;50435;43.700;-79.318;2022-08-11T07:16:57;100100.70;;;22.39;46.84
64139;BME280;50435;43.700;-79.318;2022-08-11T07:19:28;100100.58;;;22.58;46.90
64139;BME280;50435;43.700;-79.318;2022-08-11T07:21:57;100102.64;;;22.83;46.87
64139;BME280;50435;43.700;-79.318;2022-08-11T07:24:29;100103.31;;;22.39;46.75
64139;BME280;50435;43.700;-79.318;2022-08-11T07:26:59;100102.16;;;22.83;46.91
64139;BME280;50435;43.700;-79.318;2022-08-11T07:29:28;100100.78;;;22.40;46.73
64139;BME280;50435;43.700;-79.318;2022-08-11T07:31:57;100097.17;;;22.33;46.73
64139;BME280;50435;43.700;-79.318;2022-08-11T07:34:33;100098.77;;;22.15;46.80
64139;BME280;50435;43.700;-79.318;2022-08-11T07:37:08;100100.26;;;22.94;46.63
64139;BME280;50435;43.700;-79.318;2022-08-11T07:39:37;100099.52;;;22.40;46.65
64139;BME280;50435;43.700;-79.318;2022-08-11T07:42:07;100097.10;;;22.87;46.62
64139;BME280;50435;43.700;-79.318;2022-08-11T07:44:36;100094.00;;;22.62;46.62
64139;BME280;50435;43.700;-79.318;2022-08-11T07:47:04;100095.83;;;22.30;46.66
64139;BME280;50435;43.700;-79.318;2022-08-11T07:49:34;100094.40;;;22.58;46.39
64139;BME280;50435;43.700;-79.318;2022-08-11T07:52:02;100095.05;;;22.31;46.32
64139;BME280;50435;43.700;-79.318;2022-08-11T07:54:31;100094.45;;;22.56;46.57
64139;BME280;50435;43.700;-79.318;2022-08-11T07:56:59;100091.32;;;22.34;46.31
64139;BME280;50435;43.700;-79.318;2022-08-11T07:59:27;100090.51;;;22.39;46.24
64139;BME280;50435;43.700;-79.318;2022-08-11T08:01:54;100090.33;;;22.35;46.12
64139;BME280;50435;43.700;-79.318;2022-08-11T08:04:22;100090.32;;;22.17;46.48
64139;BME280;50435;43.700;-79.318;2022-08-11T08:06:49;100090.09;;;22.67;45.95
64139;BME280;50435;43.700;-79.318;2022-08-11T08:09:20;100084.59;;;21.90;45.94
64139;BME280;50435;43.700;-79.318;2022-08-11T08:11:48;100084.86;;;22.48;45.84
64139;BME280;50435;43.700;-79.318;2022-08-11T08:14:16;100085.34;;;22.00;45.65
64139;BME280;50435;43.700;-79.318;2022-08-11T08:16:45;100086.52;;;22.61;45.30
64139;BME280;50435;43.700;-79.318;2022-08-11T08:19:15;100080.54;;;22.30;45.56
64139;BME280;50435;43.700;-79.318;2022-08-11T08:21:43;100077.73;;;22.61;45.39
64139;BME280;50435;43.700;-79.318;2022-08-11T08:24:11;100071.13;;;22.10;45.29
64139;BME280;50435;43.700;-79.318;2022-08-11T08:26:42;100071.59;;;22.58;45.08
64139;BME280;50435;43.700;-79.318;2022-08-11T08:29:10;100069.81;;;21.22;45.23
64139;BME280;50435;43.700;-79.318;2022-08-11T08:31:38;100074.04;;;22.73;45.15
64139;BME280;50435;43.700;-79.318;2022-08-11T08:34:05;100075.03;;;22.67;45.18
64139;BME280;50435;43.700;-79.318;2022-08-11T08:36:33;100071.06;;;22.46;44.67
64139;BME280;50435;43.700;-79.318;2022-08-11T08:39:00;100068.05;;;22.76;44.84
64139;BME280;50435;43.700;-79.318;2022-08-11T08:41:31;100072.79;;;22.31;45.04
64139;BME280;50435;43.700;-79.318;2022-08-11T08:44:07;100068.18;;;22.25;44.89
64139;BME280;50435;43.700;-79.318;2022-08-11T08:46:38;100053.61;;;22.54;44.58
64139;BME280;50435;43.700;-79.318;2022-08-11T08:49:09;100063.81;;;22.80;44.36
64139;BME280;50435;43.700;-79.318;2022-08-11T08:51:41;100072.50;;;22.24;44.68
64139;BME280;50435;43.700;-79.318;2022-08-11T08:54:12;100073.53;;;21.46;44.30
64139;BME280;50435;43.700;-79.318;2022-08-11T08:56:42;100066.80;;;22.02;44.51
64139;BME280;50435;43.700;-79.318;2022-08-11T08:59:13;100067.72;;;21.17;44.45
64139;BME280;50435;43.700;-79.318;2022-08-11T09:01:45;100063.59;;;22.13;43.92
64139;BME280;50435;43.700;-79.318;2022-08-11T09:04:14;100063.27;;;22.05;43.97
64139;BME280;50435;43.700;-79.318;2022-08-11T09:06:42;100059.56;;;22.60;43.96
64139;BME280;50435;43.700;-79.318;2022-08-11T09:09:10;100067.55;;;21.10;43.46
64139;BME280;50435;43.700;-79.318;2022-08-11T09:11:39;100076.55;;;22.55;43.37
64139;BME280;50435;43.700;-79.318;2022-08-11T09:14:08;100079.05;;;21.46;44.16
64139;BME280;50435;43.700;-79.318;2022-08-11T09:16:36;100082.84;;;21.90;44.11
64139;BME280;50435;43.700;-79.318;2022-08-11T09:19:06;100079.33;;;22.38;44.31
64139;BME280;50435;43.700;-79.318;2022-08-11T09:21:34;100077.68;;;21.87;44.36
64139;BME280;50435;43.700;-79.318;2022-08-11T09:24:02;100077.34;;;22.40;44.13
64139;BME280;50435;43.700;-79.318;2022-08-11T09:26:30;100080.86;;;21.98;44.57
64139;BME280;50435;43.700;-79.318;2022-08-11T09:30:12;100084.68;;;22.27;44.79
64139;BME280;50435;43.700;-79.318;2022-08-11T09:32:39;100084.84;;;22.08;44.31
64139;BME280;50435;43.700;-79.318;2022-08-11T09:35:08;100083.88;;;21.52;44.64
64139;BME280;50435;43.700;-79.318;2022-08-11T09:37:36;100081.28;;;22.05;44.38
64139;BME280;50435;43.700;-79.318;2022-08-11T09:40:04;100084.23;;;21.88;44.58
64139;BME280;50435;43.700;-79.318;2022-08-11T09:42:32;100081.44;;;21.94;44.72
64139;BME280;50435;43.700;-79.318;2022-08-11T09:45:01;100078.20;;;21.84;44.68
64139;BME280;50435;43.700;-79.318;2022-08-11T09:47:29;100078.88;;;21.70;44.37
64139;BME280;50435;43.700;-79.318;2022-08-11T09:49:59;100080.41;;;22.01;44.74
64139;BME280;50435;43.700;-79.318;2022-08-11T09:52:29;100085.68;;;21.74;45.04
64139;BME280;50435;43.700;-79.318;2022-08-11T09:54:59;100082.36;;;21.86;44.97
64139;BME280;50435;43.700;-79.318;2022-08-11T09:57:27;100080.63;;;21.74;45.07
64139;BME280;50435;43.700;-79.318;2022-08-11T09:59:55;100076.16;;;21.62;44.88
64139;BME280;50435;43.700;-79.318;2022-08-11T10:02:25;100084.49;;;21.55;44.96
64139;BME280;50435;43.700;-79.318;2022-08-11T10:04:56;100094.23;;;21.74;44.63
64139;BME280;50435;43.700;-79.318;2022-08-11T10:07:24;100091.94;;;21.23;45.22
64139;BME280;50435;43.700;-79.318;2022-08-11T10:09:55;100095.85;;;21.46;45.33
64139;BME280;50435;43.700;-79.318;2022-08-11T16:45:08;100260.79;;;27.93;30.36
64139;BME280;50435;43.700;-79.318;2022-08-11T16:47:36;100265.27;;;27.69;28.55
64139;BME280;50435;43.700;-79.318;2022-08-11T16:50:05;100259.97;;;27.46;29.06
64139;BME280;50435;43.700;-79.318;2022-08-11T16:52:34;100257.09;;;27.19;28.39
64139;BME280;50435;43.700;-79.318;2022-08-11T16:55:01;100258.87;;;27.78;28.01
64139;BME280;50435;43.700;-79.318;2022-08-11T16:57:30;100256.61;;;27.25;28.44
64139;BME280;50435;43.700;-79.318;2022-08-11T17:00:03;100259.07;;;27.16;27.19
64139;BME280;50435;43.700;-79.318;2022-08-11T17:02:34;100257.67;;;27.81;28.18
64139;BME280;50435;43.700;-79.318;2022-08-11T17:05:07;100264.16;;;27.54;27.21
64139;BME280;50435;43.700;-79.318;2022-08-11T17:07:37;100250.76;;;27.34;27.27
64139;BME280;50435;43.700;-79.318;2022-08-11T17:10:07;100253.18;;;27.79;27.21
64139;BME280;50435;43.700;-79.318;2022-08-11T17:12:38;100250.79;;;27.93;26.83
64139;BME280;50435;43.700;-79.318;2022-08-11T17:15:11;100246.87;;;27.35;26.95
64139;BME280;50435;43.700;-79.318;2022-08-11T17:17:40;100254.03;;;28.01;27.04
64139;BME280;50435;43.700;-79.318;2022-08-11T17:20:10;100262.48;;;27.66;27.89
64139;BME280;50435;43.700;-79.318;2022-08-11T17:22:39;100244.94;;;28.16;26.85
64139;BME280;50435;43.700;-79.318;2022-08-11T17:25:09;100248.94;;;27.90;25.51
64139;BME280;50435;43.700;-79.318;2022-08-11T17:27:38;100252.95;;;28.55;25.54
64139;BME280;50435;43.700;-79.318;2022-08-11T17:30:08;100263.10;;;28.37;25.60
64139;BME280;50435;43.700;-79.318;2022-08-11T17:32:38;100260.80;;;28.54;25.71
64139;BME280;50435;43.700;-79.318;2022-08-11T17:35:10;100258.14;;;28.52;26.08
64139;BME280;50435;43.700;-79.318;2022-08-11T17:37:40;100260.68;;;28.67;26.40
64139;BME280;50435;43.700;-79.318;2022-08-11T17:40:10;100262.42;;;29.00;27.58
64139;BME280;50435;43.700;-79.318;2022-08-11T17:42:41;100267.06;;;29.23;27.04
64139;BME280;50435;43.700;-79.318;2022-08-11T17:45:10;100257.78;;;28.78;26.89
64139;BME280;50435;43.700;-79.318;2022-08-11T17:47:39;100255.15;;;28.95;26.52
64139;BME280;50435;43.700;-79.318;2022-08-11T17:50:08;100267.48;;;28.05;26.92
64139;BME280;50435;43.700;-79.318;2022-08-11T17:52:39;100267.06;;;28.26;26.68
64139;BME280;50435;43.700;-79.318;2022-08-11T17:55:08;100262.42;;;28.23;25.60
64139;BME280;50435;43.700;-79.318;2022-08-11T17:57:38;100268.76;;;28.38;27.41
64139;BME280;50435;43.700;-79.318;2022-08-11T18:00:08;100270.34;;;28.08;25.60
64139;BME280;50435;43.700;-79.318;2022-08-11T18:02:37;100266.20;;;28.39;28.07
64139;BME280;50435;43.700;-79.318;2022-08-11T18:05:06;100269.11;;;28.12;26.32
64139;BME280;50435;43.700;-79.318;2022-08-11T18:07:35;100270.44;;;28.30;26.32
64139;BME280;50435;43.700;-79.318;2022-08-11T18:10:05;100275.48;;;28.36;25.31
64139;BME280;50435;43.700;-79.318;2022-08-11T18:12:33;100272.26;;;28.12;25.22
64139;BME280;50435;43.700;-79.318;2022-08-11T18:15:01;100269.03;;;28.59;26.56
64139;BME280;50435;43.700;-79.318;2022-08-11T18:17:29;100272.33;;;28.42;25.51
64139;BME280;50435;43.700;-79.318;2022-08-11T18:19:57;100265.04;;;28.67;25.11
64139;BME280;50435;43.700;-79.318;2022-08-11T18:22:27;100258.47;;;28.35;25.70
64139;BME280;50435;43.700;-79.318;2022-08-11T18:24:59;100267.09;;;28.51;26.60
64139;BME280;50435;43.700;-79.318;2022-08-11T18:27:31;100263.62;;;28.36;26.54
64139;BME280;50435;43.700;-79.318;2022-08-11T18:30:01;100266.69;;;28.51;26.34
64139;BME280;50435;43.700;-79.318;2022-08-11T18:32:31;100262.48;;;28.42;25.36
64139;BME280;50435;43.700;-79.318;2022-08-11T18:35:01;100265.68;;;28.08;25.33
64139;BME280;50435;43.700;-79.318;2022-08-11T18:37:34;100271.18;;;28.72;24.74
64139;BME280;50435;43.700;-79.318;2022-08-11T18:40:07;100270.50;;;28.28;26.07
64139;BME280;50435;43.700;-79.318;2022-08-11T18:42:36;100279.36;;;28.45;25.76
64139;BME280;50435;43.700;-79.318;2022-08-11T18:45:08;100280.47;;;28.24;25.60
64139;BME280;50435;43.700;-79.318;2022-08-11T18:47:39;100276.69;;;28.61;25.42
64139;BME280;50435;43.700;-79.318;2022-08-11T18:50:10;100281.41;;;28.40;25.07
64139;BME280;50435;43.700;-79.318;2022-08-11T18:52:40;100273.52;;;28.19;25.08
64139;BME280;50435;43.700;-79.318;2022-08-11T18:55:13;100281.81;;;28.53;25.16
64139;BME280;50435;43.700;-79.318;2022-08-11T18:57:46;100277.10;;;28.71;24.48
64139;BME280;50435;43.700;-79.318;2022-08-11T19:00:14;100274.34;;;28.82;24.81
64139;BME280;50435;43.700;-79.318;2022-08-11T19:02:42;100272.34;;;28.88;24.29
64139;BME280;50435;43.700;-79.318;2022-08-11T19:05:13;100284.10;;;29.08;25.33
64139;BME280;50435;43.700;-79.318;2022-08-11T19:07:43;100278.42;;;29.05;25.19
64139;BME280;50435;43.700;-79.318;2022-08-11T19:10:12;100274.62;;;29.06;25.59
64139;BME280;50435;43.700;-79.318;2022-08-11T19:12:42;100281.64;;;28.94;25.13
64139;BME280;50435;43.700;-79.318;2022-08-11T19:15:12;100285.66;;;28.75;25.23
64139;BME280;50435;43.700;-79.318;2022-08-11T19:17:41;100284.83;;;28.94;26.17
64139;BME280;50435;43.700;-79.318;2022-08-11T19:20:16;100281.46;;;28.92;26.19
64139;BME280;50435;43.700;-79.318;2022-08-11T19:22:44;100279.86;;;28.98;26.19
64139;BME280;50435;43.700;-79.318;2022-08-11T19:25:13;100276.52;;;28.96;26.38
64139;BME280;50435;43.700;-79.318;2022-08-11T19:27:42;100279.93;;;28.75;25.43
64139;BME280;50435;43.700;-79.318;2022-08-11T19:30:13;100286.19;;;28.81;25.86
64139;BME280;50435;43.700;-79.318;2022-08-11T19:32:41;100279.32;;;28.83;26.47
64139;BME280;50435;43.700;-79.318;2022-08-11T19:35:09;100276.95;;;28.79;26.89
64139;BME280;50435;43.700;-79.318;2022-08-11T19:37:38;100274.39;;;28.63;25.74
64139;BME280;50435;43.700;-79.318;2022-08-11T19:40:08;100275.86;;;28.78;26.57
64139;BME280;50435;43.700;-79.318;2022-08-11T19:42:37;100272.75;;;28.64;27.26
64139;BME280;50435;43.700;-79.318;2022-08-11T19:45:05;100274.15;;;28.31;26.25
64139;BME280;50435;43.700;-79.318;2022-08-11T19:47:33;100271.64;;;28.63;26.58
64139;BME280;50435;43.700;-79.318;2022-08-11T19:50:04;100280.20;;;28.45;27.14
64139;BME280;50435;43.700;-79.318;2022-08-11T19:52:33;100281.73;;;28.65;26.12
64139;BME280;50435;43.700;-79.318;2022-08-11T19:55:03;100280.84;;;28.64;26.07
64139;BME280;50435;43.700;-79.318;2022-08-11T19:57:33;100276.78;;;28.63;26.54
64139;BME280;50435;43.700;-79.318;2022-08-11T20:00:04;100273.76;;;28.66;26.78
64139;BME280;50435;43.700;-79.318;2022-08-11T20:02:33;100279.35;;;28.77;26.82
64139;BME280;50435;43.700;-79.318;2022-08-11T20:05:01;100279.44;;;28.82;26.92
64139;BME280;50435;43.700;-79.318;2022-08-11T20:07:29;100281.39;;;27.97;26.35